createdAt,value
2022-08-08T00:00:55.784Z,99.90
2022-08-08T00:02:33.275Z,99.90
2022-08-08T00:05:10.363Z,99.90
2022-08-08T00:07:49.505Z,99.90
2022-08-08T00:10:28.411Z,99.90
2022-08-08T00:13:05.993Z,99.90
2022-08-08T00:15:57.131Z,1.00
2022-08-08T00:18:31.302Z,1.00
2022-08-08T00:21:05.229Z,1.00
2022-08-08T00:23:47.490Z,1.00
2022-08-08T00:26:29.067Z,1.00
2022-08-08T00:29:03.853Z,1.00
2022-08-08T00:32:15.496Z,1.00
2022-08-08T00:35:03.899Z,1.00
2022-08-08T00:37:48.248Z,1.00
2022-08-08T00:41:14.431Z,1.00
2022-08-08T00:44:01.258Z,1.00
2022-08-08T00:46:58.898Z,1.00
2022-08-08T00:50:09.276Z,1.00
2022-08-08T00:52:54.534Z,1.00
2022-08-08T00:55:59.242Z,1.00
2022-08-08T00:59:08.187Z,1.00
2022-08-08T01:01:50.768Z,1.00
2022-08-08T01:04:51.348Z,1.00
2022-08-08T01:07:57.358Z,1.00
2022-08-08T01:10:59.093Z,1.00
2022-08-08T01:13:58.399Z,1.00
2022-08-08T01:17:04.742Z,1.00
2022-08-08T01:20:15.482Z,1.00
2022-08-08T01:24:05.797Z,1.00
2022-08-08T01:26:39.646Z,76.80
2022-08-08T01:29:59.666Z,99.90
2022-08-08T01:33:23.809Z,99.90
2022-08-08T01:36:28.146Z,99.90
2022-08-08T01:39:09.555Z,99.90
2022-08-08T01:41:58.487Z,99.90
2022-08-08T01:44:41.264Z,99.90
2022-08-08T01:48:03.673Z,99.90
2022-08-08T01:50:20.971Z,1.00
2022-08-08T01:55:15.628Z,99.90
2022-08-08T01:56:29.239Z,1.00
2022-08-08T01:58:58.457Z,1.00
2022-08-08T02:01:55.029Z,13.50
2022-08-08T02:04:35.841Z,78.90
2022-08-08T02:07:07.141Z,54.80
2022-08-08T02:10:02.106Z,1.00
2022-08-08T02:12:42.669Z,1.00
2022-08-08T02:15:17.116Z,99.90
2022-08-08T02:17:51.623Z,1.00
2022-08-08T02:21:03.134Z,1.00
2022-08-08T02:23:23.128Z,99.90
2022-08-08T02:26:08.199Z,1.00
2022-08-08T02:28:51.902Z,1.00
2022-08-08T02:31:58.224Z,1.00
2022-08-08T02:35:08.596Z,16.90
2022-08-08T02:37:52.279Z,12.20
2022-08-08T02:40:39.025Z,62.80
2022-08-08T02:44:38.508Z,99.90
2022-08-08T02:46:45.502Z,16.30
2022-08-08T02:49:50.960Z,99.90
2022-08-08T02:52:50.766Z,30.00
2022-08-08T02:55:59.926Z,99.90
2022-08-08T02:59:26.094Z,99.90
2022-08-08T03:02:33.355Z,1.00
2022-08-08T03:05:32.816Z,1.00
2022-08-08T03:09:01.159Z,1.00
2022-08-08T03:12:13.986Z,99.90
2022-08-08T03:15:59.223Z,99.90
2022-08-08T03:17:59.648Z,99.90
2022-08-08T03:20:47.108Z,99.90
2022-08-08T03:23:21.287Z,99.90
2022-08-08T03:25:50.901Z,99.90
2022-08-08T03:28:22.312Z,99.90
2022-08-08T03:31:22.226Z,1.00
2022-08-08T03:33:54.591Z,99.90
2022-08-08T03:36:30.367Z,99.90
2022-08-08T03:39:14.470Z,99.90
2022-08-08T03:42:28.741Z,99.90
2022-08-08T03:44:34.849Z,99.90
2022-08-08T03:47:13.959Z,26.30
2022-08-08T03:50:00.308Z,99.90
2022-08-08T03:52:31.386Z,1.00
2022-08-08T03:55:10.115Z,15.20
2022-08-08T03:58:31.129Z,99.90
2022-08-08T04:00:30.541Z,99.90
2022-08-08T04:03:01.843Z,99.90
2022-08-08T04:05:35.208Z,1.00
2022-08-08T04:08:06.087Z,99.90
2022-08-08T04:10:36.710Z,99.90
2022-08-08T04:13:18.128Z,99.90
2022-08-08T04:16:03.760Z,99.90
2022-08-08T04:18:38.224Z,99.90
2022-08-08T04:21:10.194Z,99.90
2022-08-08T04:24:11.667Z,99.90
2022-08-08T04:26:27.249Z,99.90
2022-08-08T04:29:04.109Z,99.90
2022-08-08T04:31:58.959Z,17.30
2022-08-08T04:34:19.930Z,99.90
2022-08-08T04:36:47.977Z,99.90
2022-08-08T04:40:05.869Z,99.90
2022-08-08T04:42:05.605Z,99.90
2022-08-08T04:44:33.952Z,99.90
2022-08-08T04:47:01.971Z,99.90
2022-08-08T04:50:01.238Z,1.00
2022-08-08T04:52:18.696Z,1.00
2022-08-08T04:54:50.625Z,1.00
2022-08-08T04:57:20.063Z,39.10
2022-08-08T04:59:49.480Z,99.90
2022-08-08T05:02:20.131Z,99.90
2022-08-08T05:04:48.344Z,1.00
2022-08-08T05:07:16.403Z,1.00
2022-08-08T05:09:44.327Z,99.90
2022-08-08T05:12:20.626Z,99.90
2022-08-08T05:14:52.346Z,1.00
2022-08-08T05:17:21.634Z,66.40
2022-08-08T05:20:12.119Z,74.30
2022-08-08T05:22:37.669Z,99.90
2022-08-08T05:25:06.348Z,1.00
2022-08-08T05:27:41.781Z,99.90
2022-08-08T05:30:14.415Z,99.90
2022-08-08T05:32:43.040Z,99.90
2022-08-08T05:35:14.478Z,99.90
2022-08-08T05:37:52.013Z,99.90
2022-08-08T05:40:28.418Z,99.90
2022-08-08T05:43:03.285Z,1.00
2022-08-08T05:46:02.929Z,1.00
2022-08-08T05:48:32.979Z,99.90
2022-08-08T05:51:14.911Z,99.90
2022-08-08T05:54:24.350Z,99.90
2022-08-08T05:56:38.706Z,1.00
2022-08-08T05:59:59.838Z,99.90
2022-08-08T06:02:40.871Z,99.90
2022-08-08T06:05:34.671Z,99.90
2022-08-08T06:08:09.391Z,99.90
2022-08-08T06:10:50.334Z,1.00
2022-08-08T06:13:22.947Z,99.90
2022-08-08T06:15:54.858Z,1.00
2022-08-08T06:18:26.066Z,1.00
2022-08-08T06:20:57.176Z,1.00
2022-08-08T06:23:49.081Z,1.00
2022-08-08T06:26:38.577Z,1.00
2022-08-08T06:29:10.773Z,1.00
2022-08-08T06:32:10.211Z,1.00
2022-08-08T06:34:56.174Z,1.00
2022-08-08T06:37:38.162Z,99.90
2022-08-08T06:40:15.936Z,99.90
2022-08-08T06:42:53.673Z,99.90
2022-08-08T06:45:23.020Z,99.90
2022-08-08T06:47:52.410Z,99.90
2022-08-08T06:50:33.720Z,99.90
2022-08-08T06:53:10.027Z,99.90
2022-08-08T06:55:47.141Z,99.90
2022-08-08T06:58:21.333Z,99.90
2022-08-08T07:00:52.389Z,99.90
2022-08-08T07:03:51.920Z,99.90
2022-08-08T07:06:23.686Z,99.90
2022-08-08T07:08:58.988Z,99.90
2022-08-08T07:11:50.590Z,99.90
2022-08-08T07:14:22.349Z,99.90
2022-08-08T07:17:02.667Z,99.90
2022-08-08T07:19:39.039Z,99.90
2022-08-08T07:22:12.058Z,99.90
2022-08-08T07:24:52.949Z,99.90
2022-08-08T07:27:35.369Z,99.90
2022-08-08T07:30:16.822Z,99.90
2022-08-08T07:32:49.738Z,99.90
2022-08-08T07:35:18.213Z,99.90
2022-08-08T07:38:04.958Z,99.90
2022-08-08T07:40:39.924Z,99.90
2022-08-08T07:43:08.947Z,99.90
2022-08-08T07:45:59.764Z,99.90
2022-08-08T07:48:29.759Z,99.90
2022-08-08T07:51:00.937Z,99.90
2022-08-08T07:54:01.357Z,99.90
2022-08-08T07:56:35.397Z,99.90
2022-08-08T07:59:04.827Z,99.90
2022-08-08T08:02:36.536Z,99.90
2022-08-08T08:04:29.125Z,99.90
2022-08-08T08:07:00.770Z,99.90
2022-08-08T08:09:39.336Z,99.90
2022-08-08T08:12:08.154Z,99.90
2022-08-08T08:14:48.153Z,99.90
2022-08-08T08:17:21.085Z,99.90
2022-08-08T08:19:50.820Z,99.90
2022-08-08T08:22:25.456Z,99.90
2022-08-08T08:25:08.007Z,99.90
2022-08-08T08:27:36.275Z,99.90
2022-08-08T08:30:04.988Z,99.90
2022-08-08T08:32:36.652Z,99.90
2022-08-08T08:35:17.632Z,99.90
2022-08-08T08:38:15.016Z,99.90
2022-08-08T08:40:39.807Z,99.90
2022-08-08T08:43:17.133Z,99.90
2022-08-08T08:45:49.060Z,99.90
2022-08-08T08:48:19.858Z,99.90
2022-08-08T08:50:51.982Z,99.90
2022-08-08T08:53:27.432Z,99.90
2022-08-08T08:56:12.405Z,99.90
2022-08-08T08:58:43.357Z,99.90
2022-08-08T09:01:18.907Z,99.90
2022-08-08T09:03:51.454Z,99.90
2022-08-08T09:06:26.813Z,99.90
2022-08-08T09:09:04.225Z,99.90
2022-08-08T09:11:47.619Z,99.90
2022-08-08T09:14:25.967Z,99.90
2022-08-08T09:16:55.438Z,99.90
2022-08-08T09:22:01.477Z,99.90
2022-08-08T09:22:11.993Z,99.90
2022-08-08T09:24:42.713Z,99.90
2022-08-08T09:27:20.440Z,99.90
2022-08-08T09:29:53.580Z,99.90
2022-08-08T09:32:37.045Z,99.90
2022-08-08T09:35:08.924Z,99.90
2022-08-08T09:38:01.664Z,99.90
2022-08-08T09:40:47.719Z,99.90
2022-08-08T09:44:04.514Z,99.90
2022-08-08T09:46:25.230Z,99.90
2022-08-08T09:49:04.376Z,99.90
2022-08-08T09:52:06.375Z,99.90
2022-08-08T09:54:42.145Z,99.90
2022-08-08T09:57:17.020Z,99.90
2022-08-08T10:00:31.306Z,99.90
2022-08-08T10:02:52.378Z,99.90
2022-08-08T10:05:25.496Z,99.90
2022-08-08T10:07:59.924Z,99.90
2022-08-08T10:10:30.331Z,99.90
2022-08-08T10:13:13.906Z,99.90
2022-08-08T10:16:00.222Z,99.90
2022-08-08T10:18:29.760Z,99.90
2022-08-08T10:21:22.764Z,99.90
2022-08-08T10:23:58.935Z,99.90
2022-08-08T10:26:58.480Z,99.90
2022-08-08T10:29:24.856Z,99.90
2022-08-08T10:32:16.509Z,99.90
2022-08-08T10:34:57.120Z,99.90
2022-08-08T10:37:31.667Z,99.90
2022-08-08T10:40:12.695Z,99.90
2022-08-08T10:42:46.124Z,99.90
2022-08-08T10:45:16.516Z,99.90
2022-08-08T10:47:55.090Z,99.90
2022-08-08T10:50:24.109Z,99.90
2022-08-08T10:53:03.434Z,99.90
2022-08-08T10:55:39.849Z,99.90
2022-08-08T10:58:12.056Z,99.90
2022-08-08T11:00:52.519Z,99.90
2022-08-08T11:04:00.369Z,99.90
2022-08-08T11:06:34.355Z,99.90
2022-08-08T11:09:15.530Z,99.90
2022-08-08T11:12:06.028Z,99.90
2022-08-08T11:14:50.263Z,99.90
2022-08-08T11:17:58.194Z,99.90
2022-08-08T11:20:14.106Z,99.90
2022-08-08T11:22:50.972Z,99.90
2022-08-08T11:25:55.478Z,99.90
2022-08-08T11:28:14.821Z,99.90
2022-08-08T11:30:50.545Z,99.90
2022-08-08T11:33:23.768Z,99.90
2022-08-08T11:36:14.978Z,99.90
2022-08-08T11:38:53.965Z,99.90
2022-08-08T11:41:24.396Z,99.90
2022-08-08T11:43:54.618Z,99.90
2022-08-08T11:46:28.169Z,99.90
2022-08-08T11:49:00.783Z,99.90
2022-08-08T11:51:39.616Z,99.90
2022-08-08T11:54:26.742Z,99.90
2022-08-08T11:56:58.489Z,99.90
2022-08-08T12:00:01.738Z,99.90
2022-08-08T12:02:39.975Z,99.90
2022-08-08T12:05:12.232Z,99.90
2022-08-08T12:07:53.501Z,99.90
2022-08-08T12:10:22.847Z,99.90
2022-08-08T12:13:00.484Z,99.90
2022-08-08T12:15:30.737Z,99.90
2022-08-08T12:18:21.382Z,99.90
2022-08-08T12:20:50.563Z,99.90
2022-08-08T12:23:43.731Z,99.90
2022-08-08T12:26:28.527Z,99.90
2022-08-08T12:29:19.637Z,99.90
2022-08-08T12:32:00.505Z,99.90
2022-08-08T12:34:36.771Z,99.90
2022-08-08T12:37:08.114Z,99.90
2022-08-08T12:40:01.881Z,99.90
2022-08-08T12:42:26.460Z,99.90
2022-08-08T12:45:59.645Z,99.90
2022-08-08T12:48:10.275Z,99.90
2022-08-08T12:50:54.702Z,99.90
2022-08-08T12:53:30.294Z,99.90
2022-08-08T12:56:17.674Z,99.90
2022-08-08T12:58:48.888Z,99.90
2022-08-08T13:01:17.139Z,99.90
2022-08-08T13:03:52.677Z,99.90
2022-08-08T13:06:22.751Z,99.90
2022-08-08T13:08:56.483Z,99.90
2022-08-08T13:11:28.733Z,99.90
2022-08-08T13:14:16.195Z,99.90
2022-08-08T13:16:49.166Z,99.90
2022-08-08T13:19:20.160Z,99.90
2022-08-08T13:22:04.742Z,99.90
2022-08-08T13:24:42.425Z,99.90
2022-08-08T13:27:17.504Z,99.90
2022-08-08T13:29:53.454Z,99.90
2022-08-08T13:32:25.246Z,99.90
2022-08-08T13:34:55.587Z,99.90
2022-08-08T13:37:51.753Z,99.90
2022-08-08T13:40:17.662Z,99.90
2022-08-08T13:42:57.748Z,99.90
2022-08-08T13:45:26.525Z,99.90
2022-08-08T13:47:59.049Z,99.90
2022-08-08T13:50:38.644Z,99.90
2022-08-08T13:53:22.760Z,99.90
2022-08-08T13:55:58.819Z,99.90
2022-08-08T13:58:29.936Z,99.90
2022-08-08T14:00:57.990Z,99.90
2022-08-08T14:03:52.914Z,99.90
2022-08-08T14:06:32.418Z,99.90
2022-08-08T14:09:24.358Z,99.90
2022-08-08T14:11:51.039Z,99.90
2022-08-08T14:14:21.037Z,99.90
2022-08-08T14:16:53.405Z,99.90
2022-08-08T14:19:57.974Z,99.90
2022-08-08T14:22:23.055Z,99.90
2022-08-08T14:24:54.711Z,99.90
2022-08-08T14:27:28.871Z,99.90
2022-08-08T14:30:03.335Z,99.90
2022-08-08T14:32:47.294Z,99.90
2022-08-08T14:35:35.005Z,99.90
2022-08-08T14:38:33.392Z,99.90
2022-08-08T14:40:58.871Z,99.90
2022-08-08T14:44:02.027Z,99.90
2022-08-08T14:46:30.963Z,99.90
2022-08-08T14:49:09.479Z,99.90
2022-08-08T14:51:52.951Z,99.90
2022-08-08T14:54:29.491Z,99.90
2022-08-08T14:56:58.210Z,99.90
2022-08-08T14:59:43.668Z,99.90
2022-08-08T15:02:15.577Z,99.90
2022-08-08T15:04:45.630Z,99.90
2022-08-08T15:07:24.126Z,99.90
2022-08-08T15:10:01.504Z,99.90
2022-08-08T15:12:30.251Z,99.90
2022-08-08T15:14:58.173Z,99.90
2022-08-08T15:17:29.077Z,99.90
2022-08-08T15:19:57.461Z,99.90
2022-08-08T15:22:25.849Z,99.90
2022-08-08T15:24:54.368Z,99.90
2022-08-08T15:28:04.421Z,99.90
2022-08-08T15:30:15.161Z,99.90
2022-08-08T15:32:44.823Z,99.90
2022-08-08T15:35:16.306Z,99.90
2022-08-08T15:37:44.249Z,99.90
2022-08-08T15:40:15.470Z,99.90
2022-08-08T15:42:47.623Z,99.90
2022-08-08T15:45:17.624Z,99.90
2022-08-08T15:48:04.336Z,99.90
2022-08-08T15:50:57.829Z,99.90
2022-08-08T15:53:28.145Z,99.90
2022-08-08T15:56:01.210Z,99.90
2022-08-08T15:58:31.659Z,99.90
2022-08-08T16:00:59.775Z,99.90
2022-08-08T16:03:29.979Z,99.90
2022-08-08T16:06:01.936Z,99.90
2022-08-08T16:08:30.305Z,99.90
2022-08-08T16:13:03.268Z,99.90
2022-08-08T16:13:46.911Z,99.90
2022-08-08T16:16:18.533Z,99.90
2022-08-08T16:18:53.213Z,99.90
2022-08-08T16:21:29.014Z,99.90
2022-08-08T16:23:57.476Z,99.90
2022-08-08T16:26:33.691Z,99.90
2022-08-08T16:29:07.687Z,99.90
2022-08-08T16:31:40.178Z,99.90
2022-08-08T16:34:09.920Z,99.90
2022-08-08T16:36:40.725Z,99.90
2022-08-08T16:39:27.657Z,99.90
2022-08-08T16:42:01.474Z,99.90
2022-08-08T16:44:33.708Z,99.90
2022-08-08T16:47:18.356Z,99.90
2022-08-08T16:49:51.442Z,99.90
2022-08-08T16:55:18.385Z,99.90
2022-08-08T16:55:34.045Z,99.90
2022-08-08T16:58:15.684Z,99.90
2022-08-08T17:00:48.393Z,99.90
2022-08-08T17:03:18.142Z,99.90
2022-08-08T17:05:56.414Z,99.90
2022-08-08T17:08:24.275Z,99.90
2022-08-08T17:10:58.659Z,99.90
2022-08-08T17:13:41.109Z,99.90
2022-08-08T17:16:22.338Z,99.90
2022-08-08T17:18:52.949Z,99.90
2022-08-08T17:21:22.191Z,99.90
2022-08-08T17:24:02.015Z,99.90
2022-08-08T17:26:31.237Z,99.90
2022-08-08T17:29:04.506Z,99.90
2022-08-08T17:31:43.509Z,99.90
2022-08-08T17:34:54.212Z,99.90
2022-08-08T17:37:06.785Z,99.90
2022-08-08T17:40:03.137Z,99.90
2022-08-08T17:42:25.422Z,99.90
2022-08-08T17:44:53.304Z,99.90
2022-08-08T17:47:37.610Z,99.90
2022-08-08T17:50:09.828Z,99.90
2022-08-08T17:52:43.152Z,99.90
2022-08-08T17:56:07.097Z,99.90
2022-08-08T17:58:02.054Z,99.90
2022-08-08T18:00:31.406Z,99.90
2022-08-08T18:03:08.252Z,99.90
2022-08-08T18:05:49.799Z,99.90
2022-08-08T18:08:37.838Z,99.90
2022-08-08T18:11:15.201Z,99.90
2022-08-08T18:13:44.368Z,99.90
2022-08-08T18:16:17.117Z,99.90
2022-08-08T18:18:52.633Z,99.90
2022-08-08T18:21:35.199Z,99.90
2022-08-08T18:24:18.707Z,99.90
2022-08-08T18:26:54.210Z,99.90
2022-08-08T18:29:29.532Z,99.90
2022-08-08T18:32:03.642Z,99.90
2022-08-08T18:34:32.966Z,99.90
2022-08-08T18:37:04.689Z,99.90
2022-08-08T18:39:36.717Z,99.90
2022-08-08T18:42:11.604Z,99.90
2022-08-08T18:44:42.289Z,99.90
2022-08-08T18:47:23.999Z,99.90
2022-08-08T18:49:57.622Z,99.90
2022-08-08T18:52:30.022Z,99.90
2022-08-08T18:55:09.729Z,99.90
2022-08-08T18:57:41.397Z,99.90
2022-08-08T19:00:15.935Z,99.90
2022-08-08T19:02:55.475Z,99.90
2022-08-08T19:05:34.022Z,99.90
2022-08-08T19:08:25.862Z,99.90
2022-08-08T19:10:59.314Z,99.90
2022-08-08T19:13:53.013Z,99.90
2022-08-08T19:16:19.209Z,99.90
2022-08-08T19:18:53.019Z,99.90
2022-08-08T19:21:30.546Z,99.90
2022-08-08T19:24:05.220Z,99.90
2022-08-08T19:26:35.607Z,99.90
2022-08-08T19:29:05.899Z,99.90
2022-08-08T19:31:35.432Z,99.90
2022-08-08T19:34:36.216Z,99.90
2022-08-08T19:36:55.457Z,99.90
2022-08-08T19:39:30.714Z,99.90
2022-08-08T19:42:06.584Z,99.90
2022-08-08T19:44:45.917Z,99.90
2022-08-08T19:47:16.309Z,99.90
2022-08-08T19:50:00.683Z,99.90
2022-08-08T19:52:35.031Z,99.90
2022-08-08T19:55:08.783Z,99.90
2022-08-08T19:57:38.428Z,99.90
2022-08-08T20:00:11.227Z,99.90
2022-08-08T20:02:57.664Z,99.90
2022-08-08T20:06:15.137Z,99.90
2022-08-08T20:08:31.301Z,99.90
2022-08-08T20:11:00.612Z,99.90
2022-08-08T20:14:31.515Z,99.90
2022-08-08T20:16:18.512Z,99.90
2022-08-08T20:18:53.590Z,99.90
2022-08-08T20:21:25.541Z,99.90
2022-08-08T20:23:58.122Z,99.90
2022-08-08T20:26:27.545Z,99.90
2022-08-08T20:28:59.265Z,99.90
2022-08-08T20:31:46.905Z,99.90
2022-08-08T20:34:31.152Z,99.90
2022-08-08T20:37:00.037Z,99.90
2022-08-08T20:39:39.005Z,99.90
2022-08-08T20:42:16.008Z,99.90
2022-08-08T20:44:45.189Z,99.90
2022-08-08T20:47:23.050Z,99.90
2022-08-08T20:49:54.112Z,99.90
2022-08-08T20:52:24.219Z,99.90
2022-08-08T20:54:52.505Z,99.90
2022-08-08T20:57:20.856Z,99.90
2022-08-08T20:59:50.413Z,99.90
2022-08-08T21:02:19.832Z,99.90
2022-08-08T21:04:57.461Z,99.90
2022-08-08T21:07:31.303Z,99.90
2022-08-08T21:10:15.999Z,99.90
2022-08-08T21:12:44.669Z,99.90
2022-08-08T21:15:16.218Z,99.90
2022-08-08T21:17:45.067Z,99.90
2022-08-08T21:20:23.846Z,99.90
2022-08-08T21:23:02.670Z,99.90
2022-08-08T21:25:36.079Z,99.90
2022-08-08T21:28:13.353Z,99.90
2022-08-08T21:30:49.733Z,99.90
2022-08-08T21:33:20.547Z,99.90
2022-08-08T21:36:16.950Z,99.90
2022-08-08T21:38:36.930Z,99.90
2022-08-08T21:41:05.096Z,99.90
2022-08-08T21:43:34.733Z,99.90
2022-08-08T21:48:05.839Z,99.90
2022-08-08T21:48:54.337Z,99.90
2022-08-08T21:54:16.914Z,99.90
2022-08-08T21:54:31.634Z,99.90
2022-08-08T21:57:01.112Z,99.90
2022-08-08T22:00:03.359Z,99.90
2022-08-08T22:02:22.990Z,99.90
2022-08-08T22:04:52.391Z,99.90
2022-08-08T22:07:20.273Z,99.90
2022-08-08T22:09:55.012Z,99.90
2022-08-08T22:12:22.893Z,99.90
2022-08-08T22:14:53.784Z,99.90
2022-08-08T22:17:22.953Z,99.90
2022-08-08T22:20:12.639Z,99.90
2022-08-08T22:22:38.854Z,99.90
2022-08-08T22:25:12.356Z,99.90
2022-08-08T22:28:02.593Z,99.90
2022-08-08T22:30:33.588Z,99.90
2022-08-08T22:33:22.010Z,99.90
2022-08-08T22:36:04.982Z,99.90
2022-08-08T22:38:48.568Z,99.90
2022-08-08T22:41:21.763Z,99.90
2022-08-08T22:44:02.953Z,99.90
2022-08-08T22:46:34.245Z,99.90
2022-08-08T22:49:09.413Z,99.90
2022-08-08T22:51:46.249Z,99.90
2022-08-08T22:54:33.192Z,99.90
2022-08-08T22:57:08.716Z,99.90
2022-08-08T22:59:48.449Z,99.90
2022-08-08T23:02:28.591Z,99.90
2022-08-08T23:04:58.470Z,99.90
2022-08-08T23:07:57.401Z,99.90
2022-08-08T23:10:21.411Z,99.90
2022-08-08T23:12:55.283Z,99.90
2022-08-08T23:16:41.825Z,99.90
2022-08-08T23:18:12.843Z,99.90
2022-08-08T23:20:43.849Z,99.90
2022-08-08T23:23:13.027Z,99.90
2022-08-08T23:25:48.538Z,99.90
2022-08-08T23:28:18.864Z,99.90
2022-08-08T23:30:47.882Z,99.90
2022-08-08T23:33:20.996Z,99.90
2022-08-08T23:36:08.061Z,99.90
2022-08-08T23:38:41.917Z,99.90
2022-08-08T23:41:23.259Z,99.90
2022-08-08T23:43:57.151Z,99.90
2022-08-08T23:49:07.122Z,99.90
2022-08-08T23:49:15.431Z,99.90
2022-08-08T23:52:06.035Z,99.90
2022-08-08T23:54:41.729Z,99.90
2022-08-08T23:57:27.824Z,99.90
